createdAt,value
2019-05-10T00:00:20.725Z,89.21
2019-05-10T00:03:10.126Z,89.43
2019-05-10T00:06:00.520Z,89.34
2019-05-10T00:08:47.714Z,89.31
2019-05-10T00:11:26.097Z,89.67
2019-05-10T00:14:05.277Z,89.51
2019-05-10T00:16:43.250Z,89.61
2019-05-10T00:19:14.661Z,89.75
2019-05-10T00:21:46.179Z,89.70
2019-05-10T00:24:17.746Z,89.48
2019-05-10T00:26:49.382Z,89.35
2019-05-10T00:29:20.961Z,88.99
2019-05-10T00:31:52.375Z,89.12
2019-05-10T00:34:23.895Z,89.18
2019-05-10T00:36:59.939Z,89.79
2019-05-10T00:39:33.430Z,89.21
2019-05-10T00:42:04.835Z,89.08
2019-05-10T00:44:36.252Z,89.19
2019-05-10T00:47:07.680Z,89.28
2019-05-10T00:49:39.205Z,89.46
2019-05-10T00:52:10.772Z,89.33
2019-05-10T00:54:43.881Z,88.97
2019-05-10T00:57:16.625Z,89.09
2019-05-10T00:59:48.112Z,90.53
2019-05-10T01:02:19.721Z,90.58
2019-05-10T01:04:52.708Z,89.46
2019-05-10T01:07:24.299Z,88.71
2019-05-10T01:09:55.850Z,88.84
2019-05-10T01:12:27.358Z,88.80
2019-05-10T01:14:58.980Z,88.67
2019-05-10T01:17:31.510Z,88.77
2019-05-10T01:20:03.112Z,88.88
2019-05-10T01:22:34.642Z,89.15
2019-05-10T01:25:08.053Z,89.45
2019-05-10T01:27:39.604Z,89.40
2019-05-10T01:30:11.481Z,89.29
2019-05-10T01:32:43.059Z,89.59
2019-05-10T01:35:14.572Z,90.88
2019-05-10T01:37:46.136Z,90.58
2019-05-10T01:40:18.713Z,90.40
2019-05-10T01:42:50.407Z,90.43
2019-05-10T01:45:23.029Z,90.17
2019-05-10T01:47:54.559Z,90.94
2019-05-10T01:50:26.107Z,89.88
2019-05-10T01:52:57.585Z,89.87
2019-05-10T01:55:29.133Z,89.92
2019-05-10T01:58:00.663Z,90.31
2019-05-10T02:00:32.201Z,90.33
2019-05-10T02:03:03.732Z,90.21
2019-05-10T02:05:35.329Z,90.24
2019-05-10T02:08:08.003Z,90.25
2019-05-10T02:10:40.992Z,90.37
2019-05-10T02:13:12.505Z,90.91
2019-05-10T02:15:45.052Z,90.23
2019-05-10T02:18:16.615Z,90.88
2019-05-10T02:20:48.157Z,91.06
2019-05-10T02:23:19.606Z,90.82
2019-05-10T02:26:07.221Z,91.49
2019-05-10T02:28:27.777Z,92.12
2019-05-10T02:30:58.493Z,91.80
2019-05-10T02:33:29.761Z,91.11
2019-05-10T02:36:02.364Z,91.34
2019-05-10T02:38:37.200Z,90.95
2019-05-10T02:41:08.017Z,90.51
2019-05-10T02:43:39.217Z,90.45
2019-05-10T02:46:10.675Z,90.67
2019-05-10T02:48:42.230Z,90.58
2019-05-10T02:51:13.767Z,90.92
2019-05-10T02:53:45.319Z,91.14
2019-05-10T02:56:29.982Z,91.42
2019-05-10T02:58:50.954Z,91.49
2019-05-10T03:01:25.630Z,91.45
2019-05-10T03:04:01.060Z,91.35
2019-05-10T03:06:35.300Z,91.14
2019-05-10T03:09:08.568Z,90.66
2019-05-10T03:11:47.970Z,90.32
2019-05-10T03:14:22.917Z,89.97
2019-05-10T03:16:54.438Z,90.35
2019-05-10T03:19:27.369Z,90.20
2019-05-10T03:22:08.784Z,89.49
2019-05-10T03:24:40.306Z,89.43
2019-05-10T03:27:11.813Z,89.72
2019-05-10T03:29:43.350Z,89.53
2019-05-10T03:32:14.874Z,88.63
2019-05-10T03:34:46.347Z,89.25
2019-05-10T03:37:17.882Z,88.92
2019-05-10T03:39:49.475Z,89.11
2019-05-10T03:42:21.891Z,88.61
2019-05-10T03:44:53.426Z,88.71
2019-05-10T03:47:24.951Z,88.52
2019-05-10T03:49:57.454Z,88.35
2019-05-10T03:52:29.065Z,89.26
2019-05-10T03:55:00.675Z,89.15
2019-05-10T03:57:32.159Z,88.85
2019-05-10T04:00:05.145Z,88.53
2019-05-10T04:02:36.591Z,87.75
2019-05-10T04:05:08.437Z,88.59
2019-05-10T04:07:40.953Z,88.36
2019-05-10T04:10:13.137Z,88.86
2019-05-10T04:12:44.621Z,88.38
2019-05-10T04:15:16.250Z,88.19
2019-05-10T04:17:50.357Z,87.84
2019-05-10T04:20:22.195Z,86.99
2019-05-10T04:22:53.631Z,86.35
2019-05-10T04:25:25.132Z,86.77
2019-05-10T04:27:56.694Z,86.38
2019-05-10T04:30:31.678Z,86.76
2019-05-10T04:33:01.589Z,87.36
2019-05-10T04:35:33.088Z,86.79
2019-05-10T04:38:05.573Z,86.71
2019-05-10T04:40:37.064Z,86.76
2019-05-10T04:43:08.575Z,86.89
2019-05-10T04:45:40.093Z,86.22
2019-05-10T04:48:12.464Z,86.40
2019-05-10T04:50:48.579Z,86.14
2019-05-10T04:53:17.291Z,85.73
2019-05-10T04:55:48.807Z,85.47
2019-05-10T04:58:20.357Z,84.84
2019-05-10T05:00:53.455Z,85.07
2019-05-10T05:03:24.955Z,85.51
2019-05-10T05:05:56.523Z,85.34
2019-05-10T05:08:29.033Z,85.05
2019-05-10T05:11:00.576Z,84.64
2019-05-10T05:13:33.135Z,84.65
2019-05-10T05:16:04.784Z,83.69
2019-05-10T05:18:36.340Z,83.03
2019-05-10T05:21:07.846Z,81.89
2019-05-10T05:23:39.357Z,82.72
2019-05-10T05:26:10.898Z,82.98
2019-05-10T05:28:42.386Z,78.34
2019-05-10T05:31:14.962Z,79.04
2019-05-10T05:33:47.427Z,79.53
2019-05-10T05:36:19.003Z,80.26
2019-05-10T05:38:50.608Z,78.86
2019-05-10T05:41:22.171Z,78.86
2019-05-10T05:43:53.731Z,80.10
2019-05-10T05:46:28.236Z,80.25
2019-05-10T05:48:59.795Z,79.86
2019-05-10T05:51:32.572Z,80.47
2019-05-10T05:54:06.263Z,79.23
2019-05-10T05:56:37.789Z,80.29
2019-05-10T05:59:09.285Z,78.72
2019-05-10T06:01:40.920Z,78.38
2019-05-10T06:04:15.007Z,77.78
2019-05-10T06:06:46.539Z,75.02
2019-05-10T06:09:18.152Z,74.26
2019-05-10T06:11:50.151Z,71.30
2019-05-10T06:14:22.702Z,68.62
2019-05-10T06:16:55.434Z,66.77
2019-05-10T06:19:32.509Z,65.19
2019-05-10T06:22:06.963Z,64.11
2019-05-10T06:24:38.861Z,65.67
2019-05-10T06:27:10.479Z,65.45
2019-05-10T06:29:43.177Z,65.29
2019-05-10T06:32:16.013Z,64.36
2019-05-10T06:34:47.570Z,64.71
2019-05-10T06:37:20.214Z,64.64
2019-05-10T06:39:51.736Z,66.57
2019-05-10T06:42:23.243Z,65.36
2019-05-10T06:45:05.009Z,66.97
2019-05-10T06:47:32.859Z,67.29
2019-05-10T06:50:06.332Z,69.09
2019-05-10T06:52:37.956Z,68.02
2019-05-10T06:55:10.615Z,71.39
2019-05-10T06:57:43.214Z,68.85
2019-05-10T07:00:16.965Z,68.50
2019-05-10T07:02:51.799Z,66.76
2019-05-10T07:05:23.400Z,67.48
2019-05-10T07:08:00.490Z,67.61
2019-05-10T07:10:33.846Z,64.34
2019-05-10T07:13:03.805Z,64.71
2019-05-10T07:15:42.181Z,66.18
2019-05-10T07:18:16.758Z,62.65
2019-05-10T07:20:45.979Z,60.32
2019-05-10T07:23:17.640Z,59.90
2019-05-10T07:25:49.138Z,59.05
2019-05-10T07:28:20.781Z,56.61
2019-05-10T07:30:53.354Z,50.96
2019-05-10T07:33:24.965Z,51.36
2019-05-10T07:35:56.610Z,48.12
2019-05-10T07:38:30.966Z,52.89
2019-05-10T07:41:03.131Z,49.33
2019-05-10T07:43:35.503Z,45.87
2019-05-10T07:46:09.032Z,44.83
2019-05-10T07:48:47.311Z,47.32
2019-05-10T07:51:15.092Z,45.48
2019-05-10T07:53:51.504Z,44.95
2019-05-10T07:56:23.028Z,47.27
2019-05-10T07:58:54.588Z,44.48
2019-05-10T08:01:32.296Z,42.38
2019-05-10T08:03:59.454Z,44.87
2019-05-10T08:06:44.386Z,46.75
2019-05-10T08:09:09.762Z,43.28
2019-05-10T08:11:41.474Z,42.19
2019-05-10T08:14:14.342Z,44.39
2019-05-10T08:16:51.877Z,50.17
2019-05-10T08:19:19.215Z,52.71
2019-05-10T08:22:00.841Z,55.47
2019-05-10T08:24:32.818Z,57.72
2019-05-10T08:27:11.502Z,55.36
2019-05-10T08:29:38.475Z,55.27
2019-05-10T08:32:12.677Z,55.62
2019-05-10T08:34:52.106Z,56.24
2019-05-10T08:37:30.411Z,54.58
2019-05-10T08:39:55.974Z,54.84
2019-05-10T08:42:40.809Z,55.10
2019-05-10T08:45:05.301Z,54.86
2019-05-10T08:47:34.737Z,54.28
2019-05-10T08:50:20.587Z,55.33
2019-05-10T08:52:42.390Z,55.31
2019-05-10T08:55:15.201Z,57.41
2019-05-10T08:57:49.031Z,56.08
2019-05-10T09:00:38.281Z,56.82
2019-05-10T09:02:53.753Z,55.13
2019-05-10T09:05:28.839Z,54.89
2019-05-10T09:08:04.842Z,54.73
2019-05-10T09:10:33.176Z,54.01
2019-05-10T09:13:06.469Z,52.76
2019-05-10T09:15:43.254Z,52.63
2019-05-10T09:18:12.789Z,50.61
2019-05-10T09:20:45.405Z,50.81
2019-05-10T09:23:20.073Z,51.37
2019-05-10T09:25:52.097Z,51.74
2019-05-10T09:28:26.297Z,51.72
2019-05-10T09:31:06.653Z,51.76
2019-05-10T09:33:33.195Z,48.68
2019-05-10T09:36:06.051Z,50.96
2019-05-10T09:38:40.389Z,49.58
2019-05-10T09:41:13.256Z,49.08
2019-05-10T09:43:48.909Z,51.17
2019-05-10T09:46:23.776Z,50.78
2019-05-10T09:49:05.987Z,51.78
2019-05-10T09:51:31.000Z,50.74
2019-05-10T09:54:03.583Z,50.63
2019-05-10T09:56:39.618Z,51.79
2019-05-10T09:59:09.611Z,53.33
2019-05-10T10:01:42.293Z,52.59
2019-05-10T10:04:20.452Z,51.06
2019-05-10T10:06:53.777Z,51.69
2019-05-10T10:09:33.727Z,50.30
2019-05-10T10:12:02.830Z,50.79
2019-05-10T10:14:37.770Z,51.37
2019-05-10T10:17:05.244Z,52.16
2019-05-10T10:19:40.639Z,51.94
2019-05-10T10:22:14.978Z,50.78
2019-05-10T10:24:55.192Z,50.62
2019-05-10T10:27:26.026Z,50.14
2019-05-10T10:29:57.775Z,51.16
2019-05-10T10:32:31.592Z,52.17
2019-05-10T10:35:02.667Z,52.96
2019-05-10T10:37:37.665Z,53.40
2019-05-10T10:40:09.873Z,52.34
2019-05-10T10:42:43.189Z,52.18
2019-05-10T10:45:17.344Z,52.76
2019-05-10T10:47:49.251Z,53.77
2019-05-10T10:50:21.660Z,54.20
2019-05-10T10:52:57.604Z,53.72
2019-05-10T10:55:40.417Z,54.60
2019-05-10T10:58:12.318Z,53.09
2019-05-10T11:00:43.870Z,52.90
2019-05-10T11:03:16.538Z,54.12
2019-05-10T11:05:48.092Z,55.43
2019-05-10T11:08:22.039Z,55.38
2019-05-10T11:10:54.551Z,55.82
2019-05-10T11:13:41.587Z,55.15
2019-05-10T11:16:09.652Z,54.75
2019-05-10T11:18:33.113Z,55.06
2019-05-10T11:21:05.651Z,55.71
2019-05-10T11:23:39.164Z,56.13
2019-05-10T11:26:10.927Z,56.16
2019-05-10T11:28:44.471Z,56.37
2019-05-10T11:31:15.996Z,56.85
2019-05-10T11:33:53.614Z,58.69
2019-05-10T11:36:21.703Z,59.17
2019-05-10T11:38:58.502Z,59.28
2019-05-10T11:41:26.331Z,58.90
2019-05-10T11:44:04.216Z,58.54
2019-05-10T11:46:32.560Z,57.14
2019-05-10T11:49:10.661Z,56.63
2019-05-10T11:51:41.331Z,55.80
2019-05-10T11:54:15.162Z,53.79
2019-05-10T11:56:52.266Z,54.70
2019-05-10T11:59:33.869Z,54.06
2019-05-10T12:02:10.387Z,53.63
2019-05-10T12:04:45.332Z,51.86
2019-05-10T12:07:27.380Z,52.01
2019-05-10T12:10:08.408Z,52.79
2019-05-10T12:12:50.153Z,52.98
2019-05-10T12:15:25.501Z,53.17
2019-05-10T12:17:59.674Z,53.77
2019-05-10T12:23:13.469Z,53.67
2019-05-10T12:25:53.043Z,54.07
2019-05-10T12:26:05.557Z,53.69
2019-05-10T12:28:15.425Z,54.19
2019-05-10T12:30:47.265Z,52.89
2019-05-10T12:33:24.975Z,52.79
2019-05-10T12:35:55.713Z,52.42
2019-05-10T12:38:29.737Z,51.18
2019-05-10T12:41:01.363Z,50.32
2019-05-10T12:43:33.288Z,51.32
2019-05-10T12:46:05.879Z,51.87
2019-05-10T12:48:37.359Z,52.20
2019-05-10T12:51:12.659Z,52.11
2019-05-10T12:53:47.716Z,52.18
2019-05-10T12:56:16.176Z,52.67
2019-05-10T12:58:56.842Z,52.11
2019-05-10T13:01:25.420Z,52.45
2019-05-10T13:03:55.006Z,52.55
2019-05-10T13:09:38.759Z,53.74
2019-05-10T13:12:03.860Z,52.85
2019-05-10T13:14:31.529Z,52.86
2019-05-10T13:17:03.896Z,53.23
2019-05-10T13:19:37.704Z,52.89
2019-05-10T13:22:11.300Z,53.03
2019-05-10T13:24:46.286Z,53.56
2019-05-10T13:27:19.332Z,52.72
2019-05-10T13:29:53.773Z,52.98
2019-05-10T13:32:28.343Z,53.63
2019-05-10T13:35:07.560Z,54.26
2019-05-10T13:37:40.195Z,54.65
2019-05-10T13:40:11.786Z,54.64
2019-05-10T13:42:45.813Z,55.18
2019-05-10T13:45:17.682Z,54.47
2019-05-10T13:47:49.381Z,54.36
2019-05-10T13:50:23.377Z,54.66
2019-05-10T13:52:55.889Z,54.08
2019-05-10T13:55:27.980Z,54.48
2019-05-10T13:57:59.647Z,54.08
2019-05-10T14:00:34.043Z,54.56
2019-05-10T14:03:11.217Z,53.31
2019-05-10T14:05:40.116Z,53.76
2019-05-10T14:08:12.694Z,54.50
2019-05-10T14:10:44.188Z,54.12
2019-05-10T14:13:16.781Z,53.90
2019-05-10T14:15:50.606Z,53.94
2019-05-10T14:18:22.343Z,53.20
2019-05-10T14:20:53.987Z,52.92
2019-05-10T14:23:28.793Z,53.55
2019-05-10T14:25:59.000Z,53.56
2019-05-10T14:28:30.683Z,52.54
2019-05-10T14:31:02.150Z,52.42
2019-05-10T14:33:33.931Z,52.31
2019-05-10T14:36:05.544Z,51.95
2019-05-10T14:38:37.180Z,52.09
2019-05-10T14:41:10.715Z,58.16
2019-05-10T14:43:47.289Z,59.63
2019-05-10T14:46:20.873Z,60.44
2019-05-10T14:49:08.882Z,62.14
2019-05-10T14:51:44.303Z,63.33
2019-05-10T14:54:09.875Z,64.22
2019-05-10T14:56:41.672Z,63.36
2019-05-10T14:59:13.272Z,63.05
2019-05-10T15:01:45.642Z,62.93
2019-05-10T15:04:43.911Z,63.74
2019-05-10T15:06:52.248Z,62.76
2019-05-10T15:09:25.374Z,62.76
2019-05-10T15:11:57.109Z,62.18
2019-05-10T15:14:30.503Z,61.40
2019-05-10T15:17:02.168Z,61.12
2019-05-10T15:19:34.649Z,60.44
2019-05-10T15:22:06.172Z,60.89
2019-05-10T15:24:37.711Z,60.63
2019-05-10T15:27:09.291Z,60.20
2019-05-10T15:29:41.822Z,59.95
2019-05-10T15:32:15.617Z,59.54
2019-05-10T15:35:04.143Z,60.06
2019-05-10T15:37:23.363Z,59.85
2019-05-10T15:39:54.898Z,62.26
2019-05-10T15:42:30.534Z,60.44
2019-05-10T15:45:05.078Z,60.21
2019-05-10T15:47:49.901Z,60.58
2019-05-10T15:50:14.205Z,60.35
2019-05-10T15:52:47.039Z,60.53
2019-05-10T15:55:26.859Z,60.64
2019-05-10T15:57:57.469Z,60.33
2019-05-10T16:00:38.091Z,59.47
2019-05-10T16:02:59.839Z,59.40
2019-05-10T16:05:42.919Z,57.65
2019-05-10T16:08:04.880Z,57.52
2019-05-10T16:10:46.308Z,60.03
2019-05-10T16:13:24.945Z,59.35
2019-05-10T16:15:59.576Z,57.50
2019-05-10T16:18:33.289Z,57.30
2019-05-10T16:21:09.798Z,57.21
2019-05-10T16:23:41.385Z,60.41
2019-05-10T16:26:17.484Z,58.35
2019-05-10T16:29:01.060Z,56.81
2019-05-10T16:31:28.457Z,60.33
2019-05-10T16:34:03.102Z,57.43
2019-05-10T16:36:38.328Z,57.42
2019-05-10T16:39:11.165Z,58.49
2019-05-10T16:41:42.595Z,57.50
2019-05-10T16:44:14.141Z,57.45
2019-05-10T16:46:49.069Z,58.83
2019-05-10T16:49:21.775Z,57.65
2019-05-10T16:51:53.197Z,59.16
2019-05-10T16:54:27.385Z,61.98
2019-05-10T16:57:00.082Z,58.93
2019-05-10T16:59:35.166Z,59.96
2019-05-10T17:02:07.410Z,60.23
2019-05-10T17:04:39.801Z,61.71
2019-05-10T17:07:13.073Z,61.15
2019-05-10T17:09:49.473Z,61.97
2019-05-10T17:12:22.020Z,62.23
2019-05-10T17:14:56.282Z,60.62
2019-05-10T17:17:36.466Z,61.13
2019-05-10T17:20:07.532Z,63.67
2019-05-10T17:22:39.627Z,61.87
2019-05-10T17:25:12.473Z,62.49
2019-05-10T17:27:43.949Z,62.69
2019-05-10T17:30:15.815Z,63.46
2019-05-10T17:32:47.236Z,63.83
2019-05-10T17:35:19.865Z,63.34
2019-05-10T17:37:53.027Z,64.93
2019-05-10T17:40:24.815Z,63.60
2019-05-10T17:42:56.433Z,64.23
2019-05-10T17:45:34.909Z,64.38
2019-05-10T17:48:08.691Z,65.04
2019-05-10T17:50:36.987Z,65.04
2019-05-10T17:53:09.514Z,66.58
2019-05-10T17:55:40.968Z,65.64
2019-05-10T17:58:12.679Z,66.84
2019-05-10T18:00:45.697Z,67.03
2019-05-10T18:03:19.752Z,67.64
2019-05-10T18:05:56.569Z,68.41
2019-05-10T18:08:29.441Z,68.76
2019-05-10T18:11:03.790Z,69.53
2019-05-10T18:13:35.641Z,70.70
2019-05-10T18:16:09.515Z,71.26
2019-05-10T18:18:46.911Z,71.96
2019-05-10T18:21:22.184Z,72.65
2019-05-10T18:23:52.574Z,73.06
2019-05-10T18:26:23.420Z,73.94
2019-05-10T18:28:55.128Z,73.94
2019-05-10T18:31:26.747Z,74.81
2019-05-10T18:34:00.016Z,74.48
2019-05-10T18:36:50.543Z,74.91
2019-05-10T18:39:09.249Z,74.98
2019-05-10T18:41:41.375Z,74.59
2019-05-10T18:44:14.571Z,74.98
2019-05-10T18:46:46.844Z,75.13
2019-05-10T18:49:18.372Z,75.84
2019-05-10T18:51:49.982Z,76.15
2019-05-10T18:54:21.543Z,76.09
2019-05-10T18:56:53.071Z,76.08
2019-05-10T18:59:24.581Z,76.35
2019-05-10T19:01:56.051Z,76.22
2019-05-10T19:04:29.673Z,76.64
2019-05-10T19:07:09.847Z,76.84
2019-05-10T19:09:34.613Z,77.24
2019-05-10T19:12:18.043Z,77.12
2019-05-10T19:14:40.441Z,77.36
2019-05-10T19:17:11.975Z,76.68
2019-05-10T19:19:43.526Z,75.81
2019-05-10T19:22:15.079Z,76.21
2019-05-10T19:24:46.629Z,76.95
2019-05-10T19:27:18.153Z,77.17
2019-05-10T19:29:49.685Z,77.42
2019-05-10T19:32:21.273Z,75.71
2019-05-10T19:34:57.343Z,74.78
2019-05-10T19:37:30.116Z,75.27
2019-05-10T19:39:59.253Z,75.56
2019-05-10T19:42:31.730Z,75.67
2019-05-10T19:45:04.175Z,75.50
2019-05-10T19:47:35.974Z,75.20
2019-05-10T19:50:08.023Z,75.48
2019-05-10T19:52:39.583Z,75.83
2019-05-10T19:55:12.987Z,76.30
2019-05-10T19:57:49.417Z,77.32
2019-05-10T20:00:19.317Z,77.70
2019-05-10T20:02:50.801Z,78.68
2019-05-10T20:05:22.349Z,78.56
2019-05-10T20:07:53.811Z,77.38
2019-05-10T20:10:25.326Z,77.31
2019-05-10T20:12:56.780Z,77.19
2019-05-10T20:15:28.309Z,76.98
2019-05-10T20:18:00.912Z,76.98
2019-05-10T20:20:33.684Z,77.21
2019-05-10T20:23:05.259Z,77.40
2019-05-10T20:25:36.802Z,78.08
2019-05-10T20:28:08.259Z,77.75
2019-05-10T20:30:39.789Z,77.67
2019-05-10T20:33:11.273Z,77.79
2019-05-10T20:35:42.767Z,77.82
2019-05-10T20:38:14.283Z,77.99
2019-05-10T20:40:47.849Z,77.95
2019-05-10T20:43:19.327Z,78.56
2019-05-10T20:45:50.782Z,79.50
2019-05-10T20:48:22.432Z,79.19
2019-05-10T20:50:53.907Z,80.52
2019-05-10T20:53:25.470Z,80.76
2019-05-10T20:55:56.979Z,80.80
2019-05-10T20:58:29.517Z,81.39
2019-05-10T21:01:01.055Z,81.83
2019-05-10T21:03:32.595Z,80.51
2019-05-10T21:06:05.179Z,79.28
2019-05-10T21:08:36.731Z,79.46
2019-05-10T21:11:08.235Z,78.81
2019-05-10T21:13:39.741Z,78.80
2019-05-10T21:16:11.248Z,78.37
2019-05-10T21:18:42.794Z,77.36
2019-05-10T21:21:14.347Z,77.04
2019-05-10T21:23:45.862Z,76.67
2019-05-10T21:26:17.388Z,76.63
2019-05-10T21:28:48.968Z,76.32
2019-05-10T21:31:20.483Z,75.73
2019-05-10T21:34:08.304Z,75.87
2019-05-10T21:36:26.223Z,75.70
2019-05-10T21:38:57.728Z,75.68
2019-05-10T21:41:32.287Z,75.55
2019-05-10T21:44:03.916Z,76.32
2019-05-10T21:46:37.326Z,75.84
2019-05-10T21:49:08.923Z,75.37
2019-05-10T21:51:41.437Z,75.38
2019-05-10T21:54:12.849Z,75.60
2019-05-10T21:56:45.352Z,75.22
2019-05-10T21:59:17.864Z,74.98
2019-05-10T22:01:49.395Z,74.73
2019-05-10T22:04:20.890Z,74.74
2019-05-10T22:06:53.445Z,75.82
2019-05-10T22:09:24.838Z,75.37
2019-05-10T22:11:59.358Z,74.66
2019-05-10T22:14:29.492Z,74.16
2019-05-10T22:17:01.940Z,73.69
2019-05-10T22:19:34.845Z,73.63
2019-05-10T22:22:06.241Z,75.40
2019-05-10T22:24:41.625Z,75.46
2019-05-10T22:27:12.966Z,74.98
2019-05-10T22:29:44.799Z,74.44
2019-05-10T22:32:16.270Z,74.05
2019-05-10T22:34:47.702Z,73.63
2019-05-10T22:37:20.217Z,75.27
2019-05-10T22:39:51.704Z,74.33
2019-05-10T22:42:23.112Z,73.97
2019-05-10T22:44:54.573Z,75.46
2019-05-10T22:47:26.039Z,73.84
2019-05-10T22:49:57.456Z,75.73
2019-05-10T22:52:28.858Z,73.90
2019-05-10T22:55:00.854Z,73.82
2019-05-10T22:57:33.450Z,73.69
2019-05-10T23:00:09.405Z,73.57
2019-05-10T23:02:42.378Z,72.43
2019-05-10T23:05:13.768Z,72.60
2019-05-10T23:07:45.177Z,72.32
2019-05-10T23:10:17.033Z,72.44
2019-05-10T23:12:48.454Z,72.88
2019-05-10T23:15:19.887Z,73.07
2019-05-10T23:17:51.410Z,73.12
2019-05-10T23:20:22.838Z,72.76
2019-05-10T23:22:54.300Z,73.05
2019-05-10T23:25:26.818Z,72.99
2019-05-10T23:27:58.252Z,73.08
2019-05-10T23:30:29.739Z,73.55
2019-05-10T23:33:02.196Z,73.17
2019-05-10T23:35:34.106Z,73.03
2019-05-10T23:38:06.560Z,73.45
2019-05-10T23:40:37.990Z,73.29
2019-05-10T23:43:09.387Z,73.45
2019-05-10T23:45:40.769Z,73.75
2019-05-10T23:48:12.092Z,74.58
2019-05-10T23:50:43.430Z,73.73
2019-05-10T23:53:15.051Z,73.98
2019-05-10T23:55:46.509Z,73.57
2019-05-10T23:58:17.964Z,74.51
